Time;durP1;ratioP1;P1;durP2;ratioP2;P2;SDS_P1;SDS_P2;PMS_P1;PMS_P2;Temp;Humidity;BMP_temperature;BMP_pressure;BME280_temperature;BME280_humidity;BME280_pressure;Samples;Min_cycle;Max_cycle;Signal;HPM_P1;HPM_P2
2022/10/25 00:02:18;;;;;;;56.28;7.63;;;;;;;;;;5009385;28;20131;-56
2022/10/25 00:04:45;;;;;;;51.75;7.45;;;;;;;;;;5013855;28;20395;-53
2022/10/25 00:07:12;;;;;;;57.45;7.30;;;;;;;;;;5013901;28;20176;-56
2022/10/25 00:09:40;;;;;;;63.85;7.43;;;;;;;;;;5013807;28;20045;-56
2022/10/25 00:12:07;;;;;;;38.80;6.57;;;;;;;;;;5013519;28;20030;-58
2022/10/25 00:14:34;;;;;;;40.55;6.70;;;;;;;;;;5011527;28;20387;-57
2022/10/25 00:17:01;;;;;;;51.40;6.93;;;;;;;;;;5011837;28;20038;-57
2022/10/25 00:19:28;;;;;;;51.55;6.25;;;;;;;;;;5013589;28;20041;-56
2022/10/25 00:21:55;;;;;;;65.63;8.65;;;;;;;;;;5023157;28;20037;-55
2022/10/25 00:24:22;;;;;;;53.08;7.38;;;;;;;;;;5018368;28;20041;-57
2022/10/25 00:26:49;;;;;;;43.65;6.03;;;;;;;;;;5015781;28;20120;-63
2022/10/25 00:29:17;;;;;;;49.63;7.32;;;;;;;;;;5024639;28;20105;-61
2022/10/25 00:31:44;;;;;;;50.80;6.78;;;;;;;;;;5013017;28;20037;-60
2022/10/25 00:34:11;;;;;;;41.53;6.90;;;;;;;;;;5013493;28;20534;-61
2022/10/25 00:36:38;;;;;;;54.17;6.80;;;;;;;;;;5012816;28;20034;-62
2022/10/25 00:39:05;;;;;;;46.00;7.20;;;;;;;;;;5013391;28;20036;-61
2022/10/25 00:41:34;;;;;;;48.42;6.88;;;;;;;;;;4994067;28;20084;-59
2022/10/25 00:44:19;;;;;;;42.13;7.35;;;;;;;;;;4993802;28;20026;-59
2022/10/25 00:50:09;;;;;;;40.85;7.35;;;;;;;;;;5005435;28;20045;-60
2022/10/25 00:52:36;;;;;;;31.88;7.85;;;;;;;;;;4962111;28;20038;-60
2022/10/25 00:55:05;;;;;;;33.53;7.82;;;;;;;;;;5012919;28;20079;-58
2022/10/25 00:57:34;;;;;;;49.90;9.15;;;;;;;;;;5010702;28;20045;-58
2022/10/25 01:00:02;;;;;;;43.72;9.88;;;;;;;;;;5012995;28;20391;-60
2022/10/25 01:02:29;;;;;;;40.42;9.65;;;;;;;;;;5029516;28;20041;-59
2022/10/25 01:04:57;;;;;;;43.67;10.30;;;;;;;;;;5033089;28;20491;-60
2022/10/25 01:07:24;;;;;;;53.30;10.80;;;;;;;;;;5005342;28;20392;-63
2022/10/25 01:09:51;;;;;;;47.10;11.32;;;;;;;;;;5032491;28;20378;-59
2022/10/25 01:12:18;;;;;;;57.05;12.15;;;;;;;;;;5005211;28;20034;-61
2022/10/25 01:14:47;;;;;;;51.38;11.48;;;;;;;;;;5006440;28;20488;-60
2022/10/25 01:17:27;;;;;;;45.88;11.55;;;;;;;;;;5011751;28;20037;-64
2022/10/25 01:20:03;;;;;;;46.42;11.70;;;;;;;;;;5012208;28;20025;-60
2022/10/25 01:22:43;;;;;;;49.45;12.48;;;;;;;;;;5010774;28;20466;-59
2022/10/25 01:25:21;;;;;;;53.80;13.35;;;;;;;;;;5009866;28;20102;-60
2022/10/25 01:27:54;;;;;;;64.13;14.20;;;;;;;;;;5010786;28;20030;-64
2022/10/25 01:30:22;;;;;;;53.00;15.05;;;;;;;;;;5009535;28;20029;-61
2022/10/25 01:32:58;;;;;;;69.22;15.85;;;;;;;;;;5011323;28;20109;-64
2022/10/25 01:35:51;;;;;;;63.80;15.63;;;;;;;;;;5010360;28;20030;-59
2022/10/25 01:38:39;;;;;;;82.18;17.20;;;;;;;;;;5005902;28;20045;-61
2022/10/25 01:53:20;;;;;;;63.95;15.32;;;;;;;;;;5011478;28;20091;-60
2022/10/25 01:55:52;;;;;;;68.93;15.20;;;;;;;;;;5011966;28;20422;-60
2022/10/25 01:58:36;;;;;;;66.13;15.13;;;;;;;;;;5010481;28;20118;-63
2022/10/25 02:01:28;;;;;;;72.20;15.43;;;;;;;;;;5010366;28;20106;-59
2022/10/25 02:03:58;;;;;;;58.08;15.20;;;;;;;;;;4965110;28;23122;-60
2022/10/25 02:06:46;;;;;;;66.43;14.30;;;;;;;;;;5006526;28;20026;-58
2022/10/25 02:09:21;;;;;;;60.05;14.43;;;;;;;;;;5009148;28;20108;-55
2022/10/25 02:11:52;;;;;;;51.58;13.63;;;;;;;;;;5008778;28;20153;-56
2022/10/25 02:14:30;;;;;;;57.05;13.70;;;;;;;;;;5011146;28;20025;-56
2022/10/25 02:17:20;;;;;;;61.22;14.10;;;;;;;;;;5012449;28;20391;-57
2022/10/25 02:19:49;;;;;;;60.10;14.38;;;;;;;;;;5021572;28;20031;-59
2022/10/25 02:22:18;;;;;;;54.13;13.82;;;;;;;;;;5013931;28;20018;-57
2022/10/25 02:24:46;;;;;;;48.03;12.65;;;;;;;;;;5004115;28;20396;-58
2022/10/25 02:27:13;;;;;;;46.30;13.13;;;;;;;;;;5013767;28;20026;-57
2022/10/25 02:29:41;;;;;;;51.13;13.05;;;;;;;;;;4992794;28;20034;-61
2022/10/25 02:35:15;;;;;;;41.40;11.90;;;;;;;;;;5020944;28;20396;-58
2022/10/25 02:37:42;;;;;;;48.80;12.13;;;;;;;;;;4992766;28;20038;-58
2022/10/25 02:40:10;;;;;;;43.35;12.48;;;;;;;;;;5000303;28;20103;-56
2022/10/25 02:42:55;;;;;;;40.65;11.43;;;;;;;;;;5021634;28;20017;-58
2022/10/25 02:45:22;;;;;;;44.58;11.57;;;;;;;;;;5030764;28;20212;-57
2022/10/25 02:47:49;;;;;;;39.97;11.63;;;;;;;;;;5020990;28;20026;-56
2022/10/25 02:50:16;;;;;;;35.65;11.13;;;;;;;;;;4997481;28;20458;-58
2022/10/25 02:52:43;;;;;;;39.85;10.50;;;;;;;;;;5031749;28;20173;-55
2022/10/25 03:01:19;;;;;;;34.78;10.40;;;;;;;;;;5016138;28;20044;-58
2022/10/25 03:03:47;;;;;;;38.45;10.10;;;;;;;;;;5022878;28;20848;-58
2022/10/25 03:40:50;;;;;;;25.60;7.78;;;;;;;;;;4991451;28;20435;-59
2022/10/25 03:43:17;;;;;;;25.38;8.13;;;;;;;;;;5023031;28;20586;-55
2022/10/25 03:45:44;;;;;;;26.38;8.35;;;;;;;;;;5007680;28;20049;-58
2022/10/25 03:48:11;;;;;;;23.10;8.00;;;;;;;;;;5035263;28;20071;-54
2022/10/25 03:50:38;;;;;;;24.63;7.45;;;;;;;;;;5010927;28;20031;-54
2022/10/25 03:53:06;;;;;;;23.27;7.80;;;;;;;;;;5027495;28;20463;-57
2022/10/25 03:55:34;;;;;;;23.20;7.70;;;;;;;;;;5015234;28;20046;-58
2022/10/25 03:58:01;;;;;;;19.85;7.03;;;;;;;;;;5015274;28;20036;-57
2022/10/25 04:00:28;;;;;;;21.73;7.60;;;;;;;;;;5019927;28;20022;-57
2022/10/25 04:02:55;;;;;;;20.45;7.28;;;;;;;;;;5012738;28;20184;-57
2022/10/25 04:05:22;;;;;;;18.00;6.72;;;;;;;;;;4995373;28;20030;-59
2022/10/25 04:07:49;;;;;;;22.65;7.50;;;;;;;;;;5014506;28;20026;-58
2022/10/25 04:10:18;;;;;;;19.50;6.72;;;;;;;;;;5006830;28;20030;-57
2022/10/25 04:12:45;;;;;;;21.90;6.93;;;;;;;;;;5018419;28;20049;-54
2022/10/25 04:15:13;;;;;;;18.42;6.72;;;;;;;;;;5009480;28;20029;-58
2022/10/25 04:17:40;;;;;;;22.25;7.60;;;;;;;;;;5008317;28;20105;-55
2022/10/25 04:20:07;;;;;;;24.90;7.38;;;;;;;;;;5010129;28;20030;-55
2022/10/25 04:22:35;;;;;;;20.95;6.93;;;;;;;;;;5018894;28;20057;-58
2022/10/25 04:25:02;;;;;;;21.77;6.70;;;;;;;;;;5034434;28;20033;-58
2022/10/25 04:27:29;;;;;;;20.02;7.10;;;;;;;;;;5005495;28;20053;-53
2022/10/25 04:29:55;;;;;;;15.45;6.53;;;;;;;;;;5034314;28;20109;-58
2022/10/25 04:32:22;;;;;;;19.25;6.43;;;;;;;;;;5020365;28;20044;-58
2022/10/25 04:34:49;;;;;;;16.90;6.28;;;;;;;;;;5018571;28;20182;-58
2022/10/25 04:37:16;;;;;;;15.93;6.75;;;;;;;;;;5022738;28;20051;-57
2022/10/25 04:39:43;;;;;;;22.50;6.95;;;;;;;;;;5034235;28;20032;-54
2022/10/25 04:42:10;;;;;;;16.00;5.40;;;;;;;;;;5009425;28;20046;-52
2022/10/25 04:44:37;;;;;;;17.00;6.40;;;;;;;;;;5012903;28;20037;-59
2022/10/25 04:47:04;;;;;;;14.68;5.93;;;;;;;;;;5025007;28;20159;-56
2022/10/25 04:49:31;;;;;;;16.27;5.80;;;;;;;;;;5033840;28;20159;-55
2022/10/25 04:51:58;;;;;;;15.77;5.95;;;;;;;;;;5033894;28;20388;-57
2022/10/25 04:54:25;;;;;;;12.38;4.85;;;;;;;;;;5033902;28;20038;-56
2022/10/25 04:56:52;;;;;;;12.43;5.72;;;;;;;;;;4999402;28;20468;-58
2022/10/25 04:59:19;;;;;;;15.38;5.20;;;;;;;;;;5013346;28;20033;-56
2022/10/25 05:01:45;;;;;;;12.68;5.50;;;;;;;;;;5004139;28;20085;-57
2022/10/25 05:04:12;;;;;;;11.65;5.30;;;;;;;;;;5021843;28;20464;-58
2022/10/25 05:06:39;;;;;;;12.18;5.15;;;;;;;;;;5005899;28;20026;-60
2022/10/25 05:09:06;;;;;;;14.05;5.32;;;;;;;;;;5020164;28;20036;-54
2022/10/25 05:11:33;;;;;;;16.33;5.50;;;;;;;;;;5033592;28;20040;-58
2022/10/25 05:14:00;;;;;;;11.45;5.00;;;;;;;;;;5005761;28;20025;-57
2022/10/25 05:16:27;;;;;;;12.95;5.00;;;;;;;;;;5012473;28;20058;-58
2022/10/25 05:18:55;;;;;;;9.82;4.95;;;;;;;;;;5027476;28;20087;-58
2022/10/25 05:21:27;;;;;;;12.93;4.32;;;;;;;;;;5033447;28;20053;-58
2022/10/25 05:23:54;;;;;;;12.63;5.15;;;;;;;;;;5005484;28;20042;-56
2022/10/25 05:26:21;;;;;;;12.63;4.80;;;;;;;;;;5007484;28;20450;-58
2022/10/25 05:28:49;;;;;;;12.93;5.13;;;;;;;;;;5027762;28;20451;-58
2022/10/25 05:31:18;;;;;;;11.52;4.32;;;;;;;;;;5026549;28;20477;-58
2022/10/25 05:33:45;;;;;;;8.95;4.43;;;;;;;;;;5026477;28;20122;-55
2022/10/25 05:36:13;;;;;;;11.55;4.88;;;;;;;;;;5022630;28;20037;-52
2022/10/25 05:38:40;;;;;;;9.15;4.30;;;;;;;;;;4993506;28;20097;-55
2022/10/25 05:41:08;;;;;;;11.90;4.68;;;;;;;;;;4993420;28;20031;-56
2022/10/25 05:43:35;;;;;;;11.45;4.45;;;;;;;;;;5013473;28;20033;-57
2022/10/25 05:46:10;;;;;;;11.80;4.35;;;;;;;;;;5028524;28;20033;-53
2022/10/25 05:48:38;;;;;;;8.35;3.92;;;;;;;;;;5012476;28;20033;-59
2022/10/25 05:51:12;;;;;;;10.18;4.40;;;;;;;;;;5004977;28;20031;-57
2022/10/25 05:53:58;;;;;;;13.13;4.45;;;;;;;;;;5015250;28;20044;-57
2022/10/25 05:56:26;;;;;;;12.25;4.53;;;;;;;;;;4991488;28;20032;-59
2022/10/25 05:58:55;;;;;;;11.73;5.00;;;;;;;;;;4999404;28;20030;-58
2022/10/25 06:01:23;;;;;;;13.88;4.57;;;;;;;;;;5017076;28;20116;-58
2022/10/25 06:03:51;;;;;;;9.88;3.70;;;;;;;;;;5012638;28;20026;-58
2022/10/25 06:06:18;;;;;;;6.90;3.70;;;;;;;;;;5012892;28;20150;-57
2022/10/25 06:08:45;;;;;;;9.95;4.10;;;;;;;;;;5012718;28;20095;-56
2022/10/25 06:11:14;;;;;;;8.90;3.67;;;;;;;;;;5022041;28;20427;-57
2022/10/25 06:16:44;;;;;;;8.60;4.03;;;;;;;;;;5032966;28;20044;-58
2022/10/25 06:22:15;;;;;;;9.05;3.55;;;;;;;;;;5032758;28;20125;-58
2022/10/25 06:24:42;;;;;;;14.70;4.15;;;;;;;;;;5015500;28;20046;-57
2022/10/25 06:27:09;;;;;;;8.90;3.40;;;;;;;;;;5020855;28;20033;-53
2022/10/25 06:29:36;;;;;;;7.38;3.70;;;;;;;;;;4999761;28;20036;-55
2022/10/25 06:32:03;;;;;;;7.30;3.67;;;;;;;;;;5025403;28;20075;-58
2022/10/25 06:34:30;;;;;;;8.40;3.40;;;;;;;;;;5012968;28;20121;-58
2022/10/25 06:36:57;;;;;;;5.28;2.83;;;;;;;;;;5012379;28;20026;-58
2022/10/25 06:39:24;;;;;;;7.15;3.35;;;;;;;;;;5029710;28;20029;-58
2022/10/25 06:41:51;;;;;;;6.85;3.22;;;;;;;;;;5012465;28;20583;-57
2022/10/25 06:44:17;;;;;;;8.15;3.45;;;;;;;;;;5023947;28;20029;-58
2022/10/25 06:46:44;;;;;;;8.43;3.10;;;;;;;;;;5015959;28;20030;-58
2022/10/25 06:49:11;;;;;;;8.45;3.35;;;;;;;;;;5019971;28;20029;-58
2022/10/25 06:51:38;;;;;;;6.07;3.13;;;;;;;;;;5031701;28;20025;-59
2022/10/25 06:54:07;;;;;;;5.80;2.88;;;;;;;;;;5007145;28;20034;-57
2022/10/25 06:56:34;;;;;;;5.90;2.83;;;;;;;;;;5010901;28;20025;-55
2022/10/25 06:59:01;;;;;;;6.70;3.53;;;;;;;;;;5012262;28;20029;-55
2022/10/25 07:01:28;;;;;;;8.38;3.45;;;;;;;;;;5025035;28;20036;-59
2022/10/25 07:03:55;;;;;;;6.82;2.70;;;;;;;;;;5020756;28;20037;-56
2022/10/25 07:06:26;;;;;;;8.07;3.15;;;;;;;;;;5003873;28;20026;-59
2022/10/25 07:08:54;;;;;;;6.30;2.97;;;;;;;;;;5011940;28;20494;-56
2022/10/25 07:11:22;;;;;;;5.63;3.03;;;;;;;;;;5011977;28;20030;-58
2022/10/25 07:13:48;;;;;;;5.63;2.63;;;;;;;;;;5028583;28;20112;-54
2022/10/25 07:16:17;;;;;;;10.55;2.80;;;;;;;;;;5031654;28;20030;-58
2022/10/25 07:18:44;;;;;;;5.75;2.78;;;;;;;;;;5028701;28;20024;-58
2022/10/25 07:21:15;;;;;;;6.05;2.97;;;;;;;;;;5007178;28;20030;-58
2022/10/25 07:23:42;;;;;;;7.40;2.40;;;;;;;;;;5031460;28;20063;-51
2022/10/25 07:26:16;;;;;;;4.38;2.65;;;;;;;;;;5018618;28;20032;-58
2022/10/25 07:28:44;;;;;;;5.22;2.67;;;;;;;;;;5005731;28;20026;-52
2022/10/25 07:31:13;;;;;;;4.57;2.70;;;;;;;;;;4998166;28;20579;-58
2022/10/25 07:33:39;;;;;;;8.52;3.00;;;;;;;;;;5011803;28;20026;-54
2022/10/25 07:36:06;;;;;;;5.07;2.55;;;;;;;;;;5011734;28;20097;-57
2022/10/25 07:38:33;;;;;;;5.65;2.53;;;;;;;;;;5011780;28;20030;-58
2022/10/25 07:41:00;;;;;;;5.22;2.45;;;;;;;;;;5011408;28;20065;-58
2022/10/25 07:43:28;;;;;;;4.68;2.65;;;;;;;;;;5011769;28;20037;-57
2022/10/25 07:45:54;;;;;;;5.03;2.65;;;;;;;;;;5012721;28;20065;-55
2022/10/25 07:48:22;;;;;;;6.90;2.58;;;;;;;;;;5031395;28;20496;-55
2022/10/25 07:50:49;;;;;;;6.38;2.30;;;;;;;;;;5004301;28;20030;-60
2022/10/25 07:53:16;;;;;;;5.93;2.58;;;;;;;;;;5017132;28;20025;-56
2022/10/25 07:55:43;;;;;;;4.82;2.30;;;;;;;;;;5015740;28;20075;-55
2022/10/25 07:58:11;;;;;;;5.70;2.70;;;;;;;;;;5011440;28;20383;-55
2022/10/25 08:00:38;;;;;;;3.95;2.53;;;;;;;;;;5012583;28;20068;-55
2022/10/25 08:03:05;;;;;;;5.05;2.42;;;;;;;;;;5009806;28;20049;-57
2022/10/25 08:05:32;;;;;;;7.10;2.70;;;;;;;;;;5007002;28;20037;-58
2022/10/25 08:07:59;;;;;;;6.72;2.50;;;;;;;;;;5034819;28;20029;-55
2022/10/25 08:10:27;;;;;;;4.70;2.13;;;;;;;;;;5017649;28;20394;-57
2022/10/25 08:12:55;;;;;;;3.95;2.65;;;;;;;;;;5014989;28;20030;-58
2022/10/25 08:15:22;;;;;;;6.03;2.75;;;;;;;;;;5028844;28;20020;-55
2022/10/25 08:17:56;;;;;;;5.03;2.40;;;;;;;;;;5007069;28;20077;-56
2022/10/25 08:20:23;;;;;;;6.38;2.58;;;;;;;;;;4995160;28;20102;-55
2022/10/25 08:22:50;;;;;;;6.00;2.50;;;;;;;;;;5009535;28;20463;-55
2022/10/25 08:25:20;;;;;;;4.28;2.28;;;;;;;;;;5007087;28;20050;-57
2022/10/25 08:27:47;;;;;;;5.35;2.13;;;;;;;;;;5001078;28;20032;-53
2022/10/25 08:30:14;;;;;;;5.53;2.60;;;;;;;;;;5014551;28;20032;-58
2022/10/25 08:32:40;;;;;;;5.30;2.40;;;;;;;;;;5024233;28;20045;-58
2022/10/25 08:35:08;;;;;;;4.95;2.28;;;;;;;;;;4995020;28;20559;-58
2022/10/25 08:37:35;;;;;;;3.83;2.10;;;;;;;;;;5011237;28;20084;-54
2022/10/25 08:40:01;;;;;;;3.97;2.15;;;;;;;;;;5014441;28;20041;-57
2022/10/25 08:42:46;;;;;;;3.95;2.33;;;;;;;;;;5014435;28;20052;-55
2022/10/25 08:45:18;;;;;;;5.65;2.20;;;;;;;;;;5004921;28;20074;-55
2022/10/25 08:47:47;;;;;;;4.22;2.10;;;;;;;;;;5022381;28;20033;-58
2022/10/25 08:50:20;;;;;;;3.45;1.92;;;;;;;;;;5003408;28;20018;-58
2022/10/25 08:52:57;;;;;;;3.72;2.20;;;;;;;;;;5014259;28;20044;-58
2022/10/25 08:55:27;;;;;;;5.03;2.15;;;;;;;;;;5012731;28;20404;-54
2022/10/25 08:57:55;;;;;;;3.95;2.03;;;;;;;;;;5018252;28;20036;-57
2022/10/25 09:00:23;;;;;;;5.53;2.38;;;;;;;;;;5015677;28;20029;-56
2022/10/25 09:02:54;;;;;;;3.78;2.30;;;;;;;;;;5024606;28;20091;-58
2022/10/25 09:05:24;;;;;;;4.13;1.95;;;;;;;;;;5006070;28;20029;-57
2022/10/25 09:07:54;;;;;;;3.45;2.22;;;;;;;;;;5033670;28;20087;-57
2022/10/25 09:10:33;;;;;;;3.05;1.80;;;;;;;;;;5028732;28;20113;-59
2022/10/25 09:13:00;;;;;;;4.72;1.90;;;;;;;;;;4993759;28;20026;-57
2022/10/25 09:15:45;;;;;;;3.00;2.00;;;;;;;;;;5010360;28;20018;-56
2022/10/25 09:18:19;;;;;;;4.65;2.30;;;;;;;;;;5024923;28;20037;-58
2022/10/25 09:20:50;;;;;;;4.93;2.00;;;;;;;;;;5029195;28;20034;-58
2022/10/25 09:23:25;;;;;;;3.67;1.80;;;;;;;;;;5024599;28;20034;-56
2022/10/25 09:26:14;;;;;;;4.53;2.20;;;;;;;;;;5033074;28;20034;-56
2022/10/25 09:28:44;;;;;;;2.83;1.70;;;;;;;;;;5033440;28;20431;-54
2022/10/25 09:31:12;;;;;;;3.72;2.17;;;;;;;;;;5033137;28;20502;-56
2022/10/25 09:33:40;;;;;;;4.55;1.95;;;;;;;;;;5033275;28;20033;-58
2022/10/25 09:36:08;;;;;;;3.35;2.15;;;;;;;;;;5001556;28;20037;-60
2022/10/25 09:38:35;;;;;;;4.65;2.00;;;;;;;;;;5012637;28;20065;-56
2022/10/25 09:41:04;;;;;;;4.93;1.80;;;;;;;;;;5012309;28;20515;-59
2022/10/25 09:43:37;;;;;;;5.07;2.00;;;;;;;;;;5012509;28;20033;-59
2022/10/25 09:46:25;;;;;;;4.75;2.20;;;;;;;;;;5013151;28;20045;-56
2022/10/25 09:48:57;;;;;;;4.95;2.33;;;;;;;;;;5013127;28;20101;-55
2022/10/25 09:51:26;;;;;;;5.22;1.88;;;;;;;;;;5021958;28;20483;-55
2022/10/25 09:53:54;;;;;;;6.40;2.50;;;;;;;;;;5002173;28;20022;-52
2022/10/25 09:56:21;;;;;;;4.15;1.98;;;;;;;;;;4993608;28;20033;-56
2022/10/25 09:58:48;;;;;;;7.90;2.05;;;;;;;;;;5021057;28;20029;-59
2022/10/25 10:01:22;;;;;;;6.85;1.95;;;;;;;;;;5008220;28;20033;-57
2022/10/25 10:03:49;;;;;;;9.85;2.40;;;;;;;;;;5017508;28;20361;-57
2022/10/25 10:06:28;;;;;;;7.97;2.00;;;;;;;;;;5014950;28;20116;-57
2022/10/25 10:09:14;;;;;;;6.20;2.13;;;;;;;;;;5009563;28;20045;-58
2022/10/25 10:11:45;;;;;;;9.73;2.00;;;;;;;;;;5011741;28;20030;-60
2022/10/25 10:14:28;;;;;;;6.80;2.17;;;;;;;;;;5011981;28;20040;-56
2022/10/25 10:16:56;;;;;;;6.95;1.83;;;;;;;;;;5011934;28;20113;-54
2022/10/25 10:19:25;;;;;;;7.07;2.42;;;;;;;;;;5011814;28;20113;-54
2022/10/25 10:22:15;;;;;;;18.25;2.92;;;;;;;;;;5011764;28;20037;-56
2022/10/25 10:24:43;;;;;;;7.72;2.13;;;;;;;;;;4996325;28;20058;-57
2022/10/25 10:27:24;;;;;;;12.93;2.38;;;;;;;;;;5010675;28;20026;-58
2022/10/25 10:30:02;;;;;;;7.05;2.50;;;;;;;;;;5010460;28;20037;-56
2022/10/25 10:32:33;;;;;;;9.93;3.00;;;;;;;;;;5010893;28;20026;-55
2022/10/25 10:35:01;;;;;;;7.77;3.10;;;;;;;;;;5010762;28;20030;-55
2022/10/25 10:37:29;;;;;;;7.22;2.72;;;;;;;;;;5011464;28;20360;-52
2022/10/25 10:39:56;;;;;;;11.93;3.03;;;;;;;;;;5029876;28;20121;-53
2022/10/25 10:42:24;;;;;;;12.20;3.08;;;;;;;;;;5032024;28;20550;-54
2022/10/25 10:45:03;;;;;;;7.35;2.58;;;;;;;;;;5004162;28;20129;-55
2022/10/25 10:47:33;;;;;;;8.35;2.83;;;;;;;;;;5031928;28;20033;-55
2022/10/25 10:50:01;;;;;;;10.32;3.00;;;;;;;;;;5026276;28;20561;-51
2022/10/25 10:52:36;;;;;;;9.85;2.33;;;;;;;;;;5010642;28;20041;-54
2022/10/25 10:55:03;;;;;;;10.02;2.72;;;;;;;;;;5027091;28;20033;-55
2022/10/25 10:57:31;;;;;;;8.13;2.67;;;;;;;;;;5009491;28;20087;-56
2022/10/25 11:00:00;;;;;;;8.43;2.88;;;;;;;;;;5031486;28;20057;-54
2022/10/25 11:02:42;;;;;;;6.95;2.50;;;;;;;;;;5016400;28;20070;-54
2022/10/25 11:05:28;;;;;;;8.98;2.65;;;;;;;;;;5011085;28;20030;-53
2022/10/25 11:07:57;;;;;;;10.82;2.72;;;;;;;;;;5011689;28;20552;-54
2022/10/25 11:10:26;;;;;;;7.35;2.22;;;;;;;;;;5031500;28;20029;-53
2022/10/25 11:13:31;;;;;;;71.05;5.30;;;;;;;;;;5031469;28;20166;-57
2022/10/25 11:16:01;;;;;;;23.95;4.00;;;;;;;;;;4941327;29;20062;-58
2022/10/25 11:18:46;;;;;;;12.35;2.80;;;;;;;;;;4949089;29;20050;-52
2022/10/25 11:21:28;;;;;;;11.07;3.08;;;;;;;;;;4991238;28;20103;-50
2022/10/25 11:24:13;;;;;;;18.75;2.92;;;;;;;;;;4994610;28;20025;-48
2022/10/25 11:26:43;;;;;;;12.65;2.83;;;;;;;;;;5025600;28;20394;-52
2022/10/25 11:29:16;;;;;;;9.05;2.72;;;;;;;;;;4998492;28;20025;-56
2022/10/25 11:31:46;;;;;;;13.18;2.60;;;;;;;;;;5011897;28;20034;-55
2022/10/25 11:34:36;;;;;;;13.93;3.20;;;;;;;;;;5003920;28;20033;-56
2022/10/25 11:37:03;;;;;;;13.98;3.13;;;;;;;;;;5022471;28;20044;-55
2022/10/25 11:39:33;;;;;;;29.98;3.80;;;;;;;;;;5035491;28;20113;-58
2022/10/25 11:42:12;;;;;;;34.60;4.03;;;;;;;;;;5035117;28;20068;-47
2022/10/25 11:44:46;;;;;;;23.75;3.65;;;;;;;;;;5011328;28;20045;-54
2022/10/25 11:47:15;;;;;;;34.72;4.30;;;;;;;;;;5005611;28;20091;-56
2022/10/25 11:50:00;;;;;;;34.70;4.30;;;;;;;;;;4995802;28;20030;-53
2022/10/25 11:52:33;;;;;;;29.17;3.67;;;;;;;;;;5023367;28;20037;-52
2022/10/25 11:55:18;;;;;;;54.53;5.63;;;;;;;;;;4997625;28;20027;-57
2022/10/25 11:58:06;;;;;;;103.75;8.77;;;;;;;;;;4997612;28;20294;-57
2022/10/25 12:00:36;;;;;;;61.45;6.40;;;;;;;;;;5034636;28;20063;-56
2022/10/25 12:03:05;;;;;;;95.45;9.35;;;;;;;;;;5010667;28;20030;-53
2022/10/25 12:05:32;;;;;;;111.35;9.70;;;;;;;;;;5032589;28;20048;-54
2022/10/25 12:08:15;;;;;;;40.40;5.28;;;;;;;;;;5013100;28;20030;-56
2022/10/25 12:10:54;;;;;;;28.58;4.68;;;;;;;;;;5033316;28;20099;-55
2022/10/25 12:13:21;;;;;;;36.15;4.60;;;;;;;;;;5034745;28;20109;-57
2022/10/25 12:15:49;;;;;;;19.30;4.18;;;;;;;;;;5034574;28;20034;-56
2022/10/25 12:18:32;;;;;;;43.78;5.35;;;;;;;;;;5034719;28;20034;-55
2022/10/25 12:20:59;;;;;;;54.10;5.07;;;;;;;;;;5034466;28;20391;-56
2022/10/25 12:23:28;;;;;;;40.45;5.00;;;;;;;;;;5034586;28;20034;-57
2022/10/25 12:25:58;;;;;;;37.08;4.57;;;;;;;;;;5025369;28;20034;-56
2022/10/25 12:28:32;;;;;;;34.60;3.92;;;;;;;;;;5017226;28;20439;-55
2022/10/25 12:31:06;;;;;;;26.50;4.45;;;;;;;;;;5020318;28;20026;-57
2022/10/25 12:33:36;;;;;;;27.30;4.03;;;;;;;;;;5034429;28;20044;-57
2022/10/25 12:36:05;;;;;;;24.05;3.58;;;;;;;;;;5034273;28;20022;-57
2022/10/25 12:38:37;;;;;;;26.15;3.78;;;;;;;;;;5034316;28;20037;-57
2022/10/25 12:41:13;;;;;;;24.03;3.93;;;;;;;;;;5033754;28;20049;-57
2022/10/25 12:44:03;;;;;;;19.48;2.97;;;;;;;;;;5013067;28;20281;-57
2022/10/25 12:46:30;;;;;;;21.83;2.63;;;;;;;;;;4990380;28;20046;-56
2022/10/25 12:48:59;;;;;;;10.88;2.67;;;;;;;;;;5025759;28;20036;-56
2022/10/25 12:51:41;;;;;;;12.10;2.20;;;;;;;;;;5006175;28;20096;-56
2022/10/25 12:54:14;;;;;;;6.93;2.10;;;;;;;;;;5034049;28;20029;-57
2022/10/25 12:56:44;;;;;;;9.40;2.00;;;;;;;;;;5002609;28;20034;-57
2022/10/25 12:59:11;;;;;;;10.77;2.33;;;;;;;;;;5011283;28;20438;-57
2022/10/25 13:02:17;;;;;;;7.20;2.15;;;;;;;;;;5033754;28;20048;-49
2022/10/25 13:04:44;;;;;;;10.13;1.85;;;;;;;;;;4934184;29;20198;-50
2022/10/25 13:07:12;;;;;;;10.13;1.75;;;;;;;;;;4916699;29;20068;-55
2022/10/25 13:09:39;;;;;;;10.35;2.15;;;;;;;;;;4974663;28;20092;-55
2022/10/25 13:12:07;;;;;;;11.50;2.40;;;;;;;;;;5033487;28;20064;-53
2022/10/25 13:14:38;;;;;;;8.45;2.33;;;;;;;;;;5033525;28;20532;-54
2022/10/25 13:17:28;;;;;;;8.27;2.20;;;;;;;;;;5033458;28;20129;-53
2022/10/25 13:20:15;;;;;;;8.50;2.40;;;;;;;;;;4998764;28;20049;-51
2022/10/25 13:22:42;;;;;;;9.18;2.33;;;;;;;;;;5001954;28;20028;-53
2022/10/25 13:25:09;;;;;;;7.78;1.90;;;;;;;;;;5033234;28;20063;-50
2022/10/25 13:27:36;;;;;;;14.05;2.13;;;;;;;;;;5005568;28;20395;-56
2022/10/25 13:30:06;;;;;;;10.75;2.20;;;;;;;;;;5033063;28;20388;-56
2022/10/25 13:32:34;;;;;;;5.88;2.17;;;;;;;;;;5032974;28;20082;-54
2022/10/25 13:35:02;;;;;;;13.82;2.00;;;;;;;;;;5033091;28;20032;-53
2022/10/25 13:37:32;;;;;;;15.40;2.55;;;;;;;;;;5032860;28;20132;-55
2022/10/25 13:40:02;;;;;;;9.32;2.28;;;;;;;;;;5032691;28;20033;-56
2022/10/25 13:42:34;;;;;;;12.90;2.25;;;;;;;;;;5030794;28;20439;-58
2022/10/25 13:45:03;;;;;;;15.67;2.30;;;;;;;;;;5008879;28;20511;-56
2022/10/25 13:47:36;;;;;;;20.70;2.53;;;;;;;;;;5032780;28;20040;-53
2022/10/25 13:50:21;;;;;;;20.85;2.47;;;;;;;;;;5017333;28;20435;-54
2022/10/25 13:53:04;;;;;;;30.35;3.03;;;;;;;;;;5024790;28;20030;-56
2022/10/25 13:55:36;;;;;;;24.33;2.25;;;;;;;;;;5020143;28;20022;-57
2022/10/25 13:58:23;;;;;;;14.10;2.63;;;;;;;;;;5019152;28;20502;-56
2022/10/25 14:00:50;;;;;;;19.40;2.28;;;;;;;;;;5008578;28;20391;-56
2022/10/25 14:03:17;;;;;;;21.27;2.67;;;;;;;;;;5031992;28;20116;-58
2022/10/25 14:05:56;;;;;;;25.55;2.75;;;;;;;;;;5005730;28;20052;-57
2022/10/25 14:08:32;;;;;;;20.73;2.00;;;;;;;;;;5032372;28;20064;-58
2022/10/25 14:11:08;;;;;;;16.23;2.05;;;;;;;;;;5032289;28;20383;-56
2022/10/25 14:13:55;;;;;;;18.77;2.15;;;;;;;;;;5004588;28;20037;-56
2022/10/25 14:16:48;;;;;;;18.73;2.00;;;;;;;;;;5012697;28;20640;-57
2022/10/25 14:19:20;;;;;;;10.60;1.50;;;;;;;;;;4987224;28;20409;-56
2022/10/25 14:21:46;;;;;;;;;;;;;;;;;;5025493;28;20084;-57
2022/10/25 14:24:14;;;;;;;12.10;1.70;;;;;;;;;;5022829;28;19917;-55
2022/10/25 14:27:10;;;;;;;16.30;2.40;;;;;;;;;;5014588;28;20121;-58
2022/10/25 14:29:37;;;;;;;12.70;2.05;;;;;;;;;;4996647;28;20078;-56
2022/10/25 14:32:12;;;;;;;8.75;2.25;;;;;;;;;;5018940;28;20064;-58
2022/10/25 14:34:53;;;;;;;16.42;2.60;;;;;;;;;;5031988;28;20021;-59
2022/10/25 14:37:20;;;;;;;26.02;2.65;;;;;;;;;;5004244;28;20034;-57
2022/10/25 14:39:53;;;;;;;12.40;2.35;;;;;;;;;;5031589;28;20029;-58
2022/10/25 14:42:20;;;;;;;11.13;1.95;;;;;;;;;;5031716;28;20399;-57
2022/10/25 14:44:48;;;;;;;9.38;2.50;;;;;;;;;;5031796;28;20084;-57
2022/10/25 14:47:31;;;;;;;12.20;1.88;;;;;;;;;;5007666;28;20038;-59
2022/10/25 14:49:59;;;;;;;15.10;2.55;;;;;;;;;;4995197;28;20103;-59
2022/10/25 14:52:27;;;;;;;9.98;2.38;;;;;;;;;;5011182;28;20030;-58
2022/10/25 14:54:59;;;;;;;24.92;2.92;;;;;;;;;;5011861;28;20033;-58
2022/10/25 14:57:25;;;;;;;;;;;;;;;;;;5012532;28;20038;-57
2022/10/25 14:59:57;;;;;;;23.42;3.22;;;;;;;;;;5026029;28;20433;-57
2022/10/25 15:02:34;;;;;;;22.45;2.97;;;;;;;;;;5031430;28;20116;-52
2022/10/25 15:05:02;;;;;;;19.58;2.60;;;;;;;;;;5003866;28;20030;-55
2022/10/25 15:07:30;;;;;;;19.83;3.45;;;;;;;;;;5018307;28;20030;-57
2022/10/25 15:09:58;;;;;;;13.02;2.88;;;;;;;;;;5017610;28;20033;-57
2022/10/25 15:12:26;;;;;;;19.27;2.80;;;;;;;;;;5020743;28;20031;-57
2022/10/25 15:14:54;;;;;;;19.48;2.67;;;;;;;;;;5015277;28;20426;-57
2022/10/25 15:17:28;;;;;;;24.85;2.58;;;;;;;;;;5023547;28;20030;-56
2022/10/25 15:20:03;;;;;;;18.60;2.88;;;;;;;;;;5014220;28;20033;-51
2022/10/25 15:22:32;;;;;;;24.02;3.58;;;;;;;;;;5003921;28;20356;-54
2022/10/25 15:24:59;;;;;;;24.42;2.60;;;;;;;;;;5031445;28;20121;-54
2022/10/25 15:27:36;;;;;;;28.10;3.00;;;;;;;;;;5030791;28;20034;-59
2022/10/25 15:30:03;;;;;;;18.08;2.80;;;;;;;;;;5008945;28;20026;-55
2022/10/25 15:32:31;;;;;;;23.67;3.15;;;;;;;;;;5011122;28;20030;-56
2022/10/25 15:34:59;;;;;;;31.65;4.07;;;;;;;;;;5011059;28;20026;-58
2022/10/25 15:37:27;;;;;;;22.50;3.53;;;;;;;;;;5010596;28;20041;-56
2022/10/25 15:39:56;;;;;;;35.03;3.35;;;;;;;;;;5010456;28;20434;-58
2022/10/25 15:42:24;;;;;;;22.80;2.90;;;;;;;;;;5018157;28;20037;-56
2022/10/25 15:44:50;;;;;;;33.72;3.95;;;;;;;;;;5004985;28;20093;-58
2022/10/25 15:47:29;;;;;;;21.58;2.92;;;;;;;;;;4991353;28;20034;-56
2022/10/25 15:49:56;;;;;;;18.27;2.88;;;;;;;;;;4990951;28;20038;-57
2022/10/25 15:52:23;;;;;;;29.50;3.13;;;;;;;;;;4991887;28;20042;-56
2022/10/25 15:54:50;;;;;;;31.15;3.53;;;;;;;;;;4992337;28;20034;-58
2022/10/25 15:57:17;;;;;;;35.58;3.95;;;;;;;;;;5018217;28;20076;-57
2022/10/25 15:59:44;;;;;;;27.75;3.60;;;;;;;;;;5023903;28;20032;-55
2022/10/25 16:02:22;;;;;;;23.70;3.17;;;;;;;;;;4998041;28;20391;-55